Terminal Aerodrome Forecast
Issued by NWS

Home | Current Version | Previous Version | Text Only | Print | Product List | Glossary Off
Versions: 1 2 3 4 5 6 7 8 9 10 11 12 13

000
FTUS43 KLSX 272300
TAFCPS
TAF
KCPS 272335Z 2800/2824 31008KT P6SM -RA OVC015
      TEMPO 2800/2802 5SM -PLSN
     FM280200 31008KT P6SM BKN015
     FM280700 31006KT P6SM BKN025
     FM281000 31006KT P6SM SCT035=

USA.gov is the U.S. government's official web portal to all federal, state and local government web resources and services.